Logo AVAMET
Benvolgut visitant, si us plau, ingressa Recuperar contrasenya
AVAMET paisatges

Inforatge Algemesí

Dades diàries. Acumulats / Últims 30 dies disponibles

Data Temperatura (°C) Humitat rel. (%) Pressió rel. (hPa) Vent (km/h) Precipitació
Mínima Mitjana Màxima Amplitud
tèrmica
Mínima Mitjana Màxima Mínima Mitjana Màxima Predom. Mitjana Ràfega
màxima
Total
(mm)
Índex-n
Mínima Mitjana Màxima Mínima Mitjana Màxima n
0 a 1
P0 max
mm 5'
Dades mensuals acumulades fins l'últim dia disponible
05/2020 12,2 15,6 19,8 20,7 19,5 26,0 33,6 21,4 26 69 93 1.004 1.017 1.029   7,1 51,5 17,4
Dades anuals acumulades fins l'últim dia disponible
2020 1,4 10,6 19,8 15,0 8,4 20,3 33,6 32,2 22 73 97 1.001 1.021 1.036   7,0 90,1 297,6
Últims 30 dies disponibles
31-05-2020 15,8     21,3     26,5 10,7 52 71 84 1.011 1.014 1.016 SSE 8,7 46,7 0,0
30-05-2020 15,3     21,4     25,2 9,9 40 65 80 1.013 1.016 1.018 NNE 8,4 40,2 0,0
29-05-2020 13,9     21,5     27,4 13,5 36 65 86 1.013 1.018 1.022 ESE 9,3 38,6 0,0
28-05-2020 17,2     21,1     25,3 8,1 41 64 78 1.022 1.024 1.026 NNE 6,4 30,6 0,0
27-05-2020 15,1     20,8     26,0 10,9 46 73 86 1.025 1.026 1.027 SW 7,4 35,4 0,0
26-05-2020 16,1     20,9     25,3 9,2 53 72 88 1.025 1.026 1.028 ESE 4,8 25,7 0,0
25-05-2020 15,0     20,1     23,8 8,8 53 72 89 1.024 1.027 1.028 ESE 5,5 24,1 0,0
24-05-2020 18,4     21,4     24,1 5,7 67 77 89 1.027 1.028 1.029 NNE 6,8 27,4 0,0
23-05-2020 17,3     22,7     28,6 11,3 47 69 86 1.023 1.025 1.027 NNE 8,0 29,0 0,0
22-05-2020 17,6     23,4     29,7 12,1 44 68 87 1.021 1.023 1.026 SW 7,4 30,6 0,0
21-05-2020 16,4     22,5     29,5 13,1 41 70 91 1.018 1.019 1.022 SW 6,9 33,8 0,0
20-05-2020 15,7     22,4     29,7 14,0 40 67 86 1.014 1.016 1.018 WSW 7,9 35,4 0,0
19-05-2020 13,9     22,1     29,4 15,5 38 65 88 1.015 1.018 1.021 ESE 7,4 32,2 0,0
18-05-2020 14,3     20,4     26,6 12,3 46 68 86 1.018 1.021 1.023 ESE 7,2 35,4 0,0
17-05-2020 14,3     18,9     23,4 9,1 49 73 90 1.020 1.021 1.023 SW 5,3 27,4 0,0
16-05-2020 14,8     17,1     21,0 6,2 65 82 92 1.015 1.017 1.020 SW 4,5 24,1 0,2
15-05-2020 12,2     16,3     19,9 7,7 61 76 88 1.011 1.013 1.016 SW 5,3 24,1 0,4
14-05-2020 12,9     16,0     19,5 6,6 54 75 91 1.004 1.006 1.011 WSW 5,6 32,2 12,8
13-05-2020 13,6     19,4     25,7 12,1 36 60 80 1.004 1.006 1.008 SW 8,4 33,8 0,2
12-05-2020 16,0     19,2     22,8 6,8 53 67 84 1.007 1.009 1.012 NNE 7,1 38,6 0,6
11-05-2020 16,1     21,2     26,5 10,4 40 53 69 1.007 1.009 1.012 WSW 10,9 46,7 0,0
10-05-2020 15,2     19,6     25,4 10,2 33 66 93 1.005 1.006 1.010 WSW 10,8 51,5 3,2
09-05-2020 15,8     19,6     23,9 8,1 64 80 91 1.009 1.013 1.017 NNE 5,8 35,4 0,0
08-05-2020 15,1     19,2     22,7 7,6 65 76 88 1.014 1.017 1.019 NNE 5,3 38,6 0,0
07-05-2020 15,9     20,4     25,0 9,1 42 75 91 1.018 1.019 1.020 NNE 5,3 27,4 0,0
06-05-2020 15,7     21,0     26,7 11,0 48 73 88 1.016 1.017 1.019 E 5,8 30,6 0,0
05-05-2020 15,4     21,1     30,4 15,0 40 73 91 1.013 1.014 1.016 SW 6,3 32,2 0,0
04-05-2020 14,4     19,6     24,7 10,3 60 78 90 1.014 1.016 1.018 WSW 5,6 25,7 0,0
03-05-2020 16,4     22,2     27,5 11,1 42 62 85 1.016 1.018 1.020 ESE 8,0 33,8 0,0
02-05-2020 19,8     25,9     33,6 13,8 26 51 68 1.016 1.019 1.021 WSW 8,9 29,0 0,0
Últims 13 mesos disponibles
04/2020 7,5 12,2 16,3 15,7 15,7 20,1 26,4 18,9 49 77 93 1.007 1.017 1.027 ESE 6,3 43,5 54,8
03/2020 4,8 10,2 16,6 13,9 9,8 18,4 25,2 20,4 39 71 92 1.009 1.019 1.028 NNE 7,8 90,1 102,0
02/2020 5,1 9,0 13,7 14,2 14,1 20,9 26,7 21,6 48 72 88 1.016 1.027 1.036 SSW 6,7 41,8 2,4
01/2020 1,4 6,1 13,7 10,4 8,4 16,0 20,3 18,9 59 77 92 1.017 1.027 1.035 SW 7,2 70,8 121,0
12/2019 3,3 9,9 17,9 13,5 12,9 18,0 25,5 22,2 52 71 92 1.007 1.021 1.035 WSW 8,3 64,4 95,2
11/2019 4,8 11,2 20,8 15,2 15,7 19,9 28,1 23,3 48 61 80 1.001 1.012 1.020 WSW 8,8 54,7 10,2
10/2019 10,1 14,9 20,2 19,6 15,6 25,8 34,9 24,8 49 72 87 1.010 1.018 1.023 WSW 5,7 37,0 30,4
09/2019 14,6 19,4 22,9 23,5 21,4 28,1 34,8 20,2 42 75 87 1.011 1.018 1.025 N 7,1 51,5 77,4
08/2019 17,3 21,5 26,0 26,2 26,9 31,4 42,2 24,9 48 72 79 1.011 1.017 1.021 SSE 7,1 46,7 4,8
07/2019 19,9 22,0 25,7 26,4 26,3 30,9 36,4 16,5 58 71 79 1.012 1.016 1.022 SSE 7,1 46,7 2,6
06/2019 13,2 17,2 21,8 22,6 21,7 27,7 35,1 21,9 40 66 79 1.010 1.016 1.023 SE 7,7 53,7 4,0
05/2019 7,6 13,6 19,9 18,7 18,6 23,8 32,7 25,1 49 68 82 1.006 1.016 1.025 SSE 7,5 51,9 6,0
04/2019 7,9 10,9 14,6 15,1 14,6 20,2 29,7 21,8 46 69 94 1.001 1.015 1.027 SSE 8,5 58,0 193,2
Tots els anys disponibles
2019 -1,7 13,3 26,0 18,0 12,7 23,4 42,2 43,9 34 68 94 994 1.018 1.035 SSE 7,4 75,9 453,4
2018 2,0 15,0 25,2 18,9 9,6 23,8 37,3 35,3 37 69 97 994 1.015 1.030 OSO 7,1 94,5 825,0
2017 0,0 13,9 25,9 18,4 8,2 23,6 38,3 38,3 30 70 92 998 1.017 1.037 SE 4,5 70,3 298,5
2016 2,5 14,2 25,0 18,8 11,4 23,4 40,1 37,6 34 67 94 994 1.016 1.035 71,0 356,1
2015 0,7 13,9 21,0 18,8 22,8 23,7 43,0 42,3 60 67 75 1.013 1.017 1.028 80,0 439,8
2014 0,8 15,2 25,3 20,2 11,8 25,2 41,7 40,9 36 65 90 991 1.014 1.032 66,0 167,8
Temperatura (°C)
Humitat relativa (%)
Pressió (hPa)
Precipitació (mm)
Nota sobre les dades: s'avisa a l'usuari de la provisionalitat i no oficialitat d'aquestes dades
Logo AVAMET blanc
Web allotjada a Sollutia
Llicència de Creative CommonsLa web d'AVAMET i els seus continguts estan subjectes a una llicència de
Reconeixement - No Comercial - Compartir igual
Últimes estacions: Xodos - la Vega (Soci), la Vall d'Alba - Centre (Ajuntament soci), Chera (Ajuntament soci) - - -